Time;durP1;ratioP1;P1;durP2;ratioP2;P2;SDS_P1;SDS_P2;PMS_P1;PMS_P2;Temp;Humidity;BMP_temperature;BMP_pressure;BME280_temperature;BME280_humidity;BME280_pressure;Samples;Min_cycle;Max_cycle;Signal;HPM_P1;HPM_P2
2022/01/20 00:00:17;;;;;;;32.30;5.83;;;;;;;4.46;100.00;98324.88;5118157;28;20612;-78
2022/01/20 00:02:45;;;;;;;44.50;5.37;;;;;;;4.47;100.00;98322.03;5121819;28;20603;-78
2022/01/20 00:05:27;;;;;;;53.33;5.87;;;;;;;4.42;100.00;98329.81;5121071;28;20627;-78
2022/01/20 00:27:17;;;;;;;23.80;4.70;;;;;;;4.54;100.00;98322.00;5123649;28;20627;-78
2022/01/20 00:32:35;;;;;;;17.03;3.97;;;;;;;4.47;100.00;98318.56;5122833;28;20600;-77
2022/01/20 00:35:15;;;;;;;24.47;4.53;;;;;;;4.51;100.00;98322.41;5121982;28;20620;-77
2022/01/20 00:37:41;;;;;;;65.17;6.17;;;;;;;4.35;100.00;98319.25;5114235;28;20604;-78
2022/01/20 00:40:11;;;;;;;56.97;6.47;;;;;;;4.31;100.00;98323.34;5114173;28;20607;-77
2022/01/20 00:42:38;;;;;;;33.40;4.87;;;;;;;4.25;100.00;98313.63;5114032;28;20190;-78
2022/01/20 00:45:06;;;;;;;25.07;4.43;;;;;;;4.13;100.00;98310.03;5120937;28;20611;-78
2022/01/20 00:47:33;;;;;;;41.30;5.87;;;;;;;4.42;100.00;98316.59;5117591;28;20615;-78
2022/01/20 00:49:59;;;;;;;31.50;4.47;;;;;;;4.30;100.00;98303.22;5125884;28;20599;-77
2022/01/20 00:52:26;;;;;;;31.87;4.30;;;;;;;4.39;100.00;98318.84;5122138;28;21217;-77
2022/01/20 00:54:53;;;;;;;22.87;3.73;;;;;;;4.27;100.00;98314.22;5117463;28;21074;-77
2022/01/20 00:57:21;;;;;;;19.87;3.90;;;;;;;4.45;100.00;98329.38;5123096;28;20626;-77
2022/01/20 00:59:48;;;;;;;45.60;5.47;;;;;;;4.28;100.00;98329.06;5125445;28;21176;-78
2022/01/20 01:02:14;;;;;;;46.17;5.87;;;;;;;4.33;100.00;98329.22;5124070;28;20611;-78
2022/01/20 01:04:41;;;;;;;36.13;5.83;;;;;;;4.46;100.00;98325.69;5121686;28;20674;-78
2022/01/20 01:09:55;;;;;;;28.60;4.80;;;;;;;4.52;100.00;98338.06;5103606;28;20619;-78
2022/01/20 01:12:32;;;;;;;42.97;5.27;;;;;;;4.29;100.00;98329.88;5126724;28;20591;-78
2022/01/20 01:15:00;;;;;;;22.07;4.57;;;;;;;4.34;100.00;98322.94;5123359;28;20616;-78
2022/01/20 01:20:18;;;;;;;40.00;5.10;;;;;;;4.26;100.00;98323.19;5124361;28;20608;-78
2022/01/20 01:22:45;;;;;;;18.57;4.20;;;;;;;4.45;100.00;98331.22;5123025;28;20597;-78
2022/01/20 01:25:14;;;;;;;25.43;4.40;;;;;;;4.40;100.00;98333.66;5117272;28;20592;-78
2022/01/20 01:27:44;;;;;;;44.23;5.83;;;;;;;4.34;100.00;98330.03;5126630;28;20611;-77
2022/01/20 01:30:24;;;;;;;19.83;4.83;;;;;;;4.45;100.00;98339.13;5124995;28;20600;-77
2022/01/20 01:32:53;;;;;;;30.13;4.60;;;;;;;4.46;100.00;98335.44;5120323;28;20608;-78
2022/01/20 01:35:23;;;;;;;55.77;6.97;;;;;;;4.36;100.00;98333.31;5122913;28;20612;-78
2022/01/20 01:40:37;;;;;;;42.67;6.27;;;;;;;4.48;100.00;98339.53;5121057;28;20605;-78
2022/01/20 01:43:13;;;;;;;15.63;3.93;;;;;;;4.57;100.00;98340.06;5120926;28;20623;-78
2022/01/20 01:45:41;;;;;;;42.97;6.70;;;;;;;4.53;100.00;98328.28;5120471;28;20608;-78
2022/01/20 01:48:08;;;;;;;14.23;3.30;;;;;;;4.51;100.00;98330.34;5120498;28;20597;-78
2022/01/20 01:50:35;;;;;;;54.23;6.23;;;;;;;4.38;100.00;98330.44;5123949;28;20625;-78
2022/01/20 01:53:04;;;;;;;27.70;4.10;;;;;;;4.61;100.00;98333.34;5124642;27;20619;-78
2022/01/20 01:55:32;;;;;;;51.53;6.60;;;;;;;4.40;100.00;98317.78;5116580;28;20600;-78
2022/01/20 01:57:59;;;;;;;34.23;5.00;;;;;;;4.46;100.00;98323.03;5123019;28;20607;-78
2022/01/20 02:00:30;;;;;;;28.50;3.80;;;;;;;4.24;100.00;98317.28;5121704;28;20592;-78
2022/01/20 02:02:57;;;;;;;53.37;6.67;;;;;;;4.33;100.00;98308.06;5120429;28;20608;-78
2022/01/20 02:05:24;;;;;;;25.07;4.20;;;;;;;4.33;100.00;98318.66;5123292;28;20604;-77
2022/01/20 02:18:53;;;;;;;46.60;5.97;;;;;;;4.38;100.00;98312.75;5119250;28;20612;-78
2022/01/20 02:21:21;;;;;;;53.63;5.37;;;;;;;4.29;100.00;98311.38;5122010;28;20627;-78
2022/01/20 02:23:49;;;;;;;50.97;6.13;;;;;;;4.32;100.00;98310.94;5120756;28;21318;-78
2022/01/20 02:26:16;;;;;;;74.17;6.23;;;;;;;4.31;100.00;98311.97;5121738;28;20638;-78
2022/01/20 02:28:44;;;;;;;38.70;4.83;;;;;;;4.16;100.00;98306.16;5121107;28;20604;-78
2022/01/20 02:31:11;;;;;;;22.87;4.63;;;;;;;4.16;100.00;98298.22;5119401;28;20604;-78
2022/01/20 02:33:38;;;;;;;51.87;6.20;;;;;;;4.22;100.00;98295.53;5122414;28;20612;-78
2022/01/20 02:36:10;;;;;;;36.17;4.90;;;;;;;4.20;100.00;98291.50;5122289;28;20633;-78
2022/01/20 02:38:42;;;;;;;38.27;5.03;;;;;;;4.22;100.00;98292.09;5136693;27;21102;-78
2022/01/20 02:46:39;;;;;;;51.97;5.33;;;;;;;4.19;100.00;98280.13;5122253;28;20607;-78
2022/01/20 02:49:07;;;;;;;42.03;4.70;;;;;;;4.17;100.00;98279.53;5121437;28;20589;-78
2022/01/20 02:51:34;;;;;;;46.97;5.77;;;;;;;4.18;100.00;98283.78;5122500;28;20600;-78
2022/01/20 02:54:02;;;;;;;36.83;4.43;;;;;;;4.29;100.00;98287.56;5120398;28;21219;-78
2022/01/20 02:56:29;;;;;;;40.30;4.53;;;;;;;4.32;100.00;98281.88;5118734;28;20605;-78
2022/01/20 02:58:56;;;;;;;23.67;3.87;;;;;;;4.33;100.00;98286.13;5118510;28;20621;-78
2022/01/20 03:01:22;;;;;;;28.30;3.93;;;;;;;4.36;100.00;98291.78;5121930;28;20611;-78
2022/01/20 03:03:49;;;;;;;24.97;3.77;;;;;;;4.29;100.00;98279.66;5122775;28;20615;-78
2022/01/20 03:06:16;;;;;;;46.63;4.53;;;;;;;4.36;100.00;98288.34;5122011;28;20592;-78
2022/01/20 03:08:43;;;;;;;23.93;4.07;;;;;;;4.30;100.00;98292.63;5118289;28;20624;-78
2022/01/20 03:11:11;;;;;;;36.17;4.50;;;;;;;4.12;100.00;98295.19;5118617;28;20596;-78
2022/01/20 03:13:38;;;;;;;21.70;4.33;;;;;;;4.28;100.00;98293.88;5121737;28;20620;-78
2022/01/20 03:16:05;;;;;;;44.60;4.50;;;;;;;4.26;100.00;98299.41;5121396;28;20626;-78
2022/01/20 03:18:32;;;;;;;42.73;4.83;;;;;;;4.30;100.00;98297.13;5118169;28;20634;-78
2022/01/20 03:20:59;;;;;;;27.77;4.00;;;;;;;4.28;100.00;98289.41;5118014;28;20657;-78
2022/01/20 03:23:26;;;;;;;41.00;5.10;;;;;;;4.12;100.00;98287.25;5122733;28;20600;-78
2022/01/20 03:25:52;;;;;;;40.80;5.43;;;;;;;4.27;100.00;98295.72;5118019;28;20638;-78
2022/01/20 03:28:20;;;;;;;27.47;3.70;;;;;;;4.19;100.00;98298.63;5121618;28;20588;-78
2022/01/20 03:30:47;;;;;;;42.63;4.13;;;;;;;4.21;100.00;98301.84;5119531;28;20593;-78
2022/01/20 03:33:14;;;;;;;28.67;3.93;;;;;;;4.29;100.00;98293.69;5119663;28;20605;-78
2022/01/20 03:35:41;;;;;;;22.57;2.47;;;;;;;4.29;100.00;98290.22;5122605;28;20604;-78
2022/01/20 03:38:08;;;;;;;17.37;2.87;;;;;;;4.34;100.00;98293.84;5122010;28;20612;-78
2022/01/20 03:40:35;;;;;;;22.87;3.70;;;;;;;4.22;100.00;98284.16;5119527;28;20642;-78
2022/01/20 03:43:02;;;;;;;27.87;3.43;;;;;;;4.29;100.00;98288.41;5118171;28;21013;-78
2022/01/20 03:45:30;;;;;;;46.63;4.60;;;;;;;4.23;100.00;98286.59;5122171;28;20625;-78
2022/01/20 03:48:06;;;;;;;28.00;3.93;;;;;;;4.27;100.00;98285.13;5122520;28;20588;-78
2022/01/20 03:53:18;;;;;;;10.53;2.47;;;;;;;4.27;100.00;98290.41;5123510;28;20592;-78
2022/01/20 03:55:44;;;;;;;23.47;3.50;;;;;;;4.29;100.00;98282.28;5116425;28;20668;-78
2022/01/20 03:58:11;;;;;;;36.43;3.97;;;;;;;4.26;100.00;98288.81;5122854;28;20612;-77
2022/01/20 04:00:40;;;;;;;59.03;5.67;;;;;;;4.22;100.00;98294.72;5121915;28;20627;-78
2022/01/20 04:03:07;;;;;;;24.23;3.30;;;;;;;4.16;100.00;98291.13;5122713;28;20600;-77
2022/01/20 04:05:36;;;;;;;36.20;4.00;;;;;;;4.20;100.00;98296.78;5121531;28;20588;-78
2022/01/20 04:08:02;;;;;;;44.67;3.70;;;;;;;4.20;100.00;98300.25;5121623;28;20635;-78
2022/01/20 04:10:29;;;;;;;32.97;3.20;;;;;;;4.35;100.00;98307.88;5125566;28;21208;-78
2022/01/20 04:12:56;;;;;;;12.03;2.70;;;;;;;4.30;100.00;98305.84;5126068;28;20607;-78
2022/01/20 04:15:26;;;;;;;13.80;2.70;;;;;;;4.27;100.00;98293.06;5124771;28;20641;-78
2022/01/20 04:17:56;;;;;;;21.47;2.80;;;;;;;4.26;100.00;98291.47;5122312;28;20666;-78
2022/01/20 04:20:23;;;;;;;38.00;3.27;;;;;;;4.24;100.00;98288.19;5125835;28;20677;-78
2022/01/20 04:22:50;;;;;;;21.23;3.13;;;;;;;4.32;100.00;98277.38;5127639;28;20584;-78
2022/01/20 04:25:17;;;;;;;42.53;6.30;;;;;;;4.35;100.00;98282.25;5120963;28;20597;-77
2022/01/20 04:27:43;;;;;;;37.17;4.57;;;;;;;4.40;100.00;98278.94;5129446;28;20603;-78
2022/01/20 04:30:10;;;;;;;12.80;2.70;;;;;;;4.34;100.00;98282.44;5128616;28;20599;-78
2022/01/20 04:32:37;;;;;;;24.30;3.43;;;;;;;4.19;100.00;98272.19;5125117;28;20609;-77
2022/01/20 04:35:06;;;;;;;17.63;2.63;;;;;;;4.12;100.00;98276.69;5124936;28;20592;-77
2022/01/20 04:37:32;;;;;;;26.40;3.03;;;;;;;4.30;100.00;98284.72;5128248;28;20600;-77
2022/01/20 04:40:02;;;;;;;48.50;4.10;;;;;;;4.33;100.00;98286.91;5125661;28;20596;-77
2022/01/20 04:42:31;;;;;;;38.87;3.83;;;;;;;4.38;100.00;98288.94;5121905;28;21086;-77
2022/01/20 04:45:02;;;;;;;43.93;3.63;;;;;;;4.35;100.00;98276.16;5122304;28;20622;-77
2022/01/20 04:47:43;;;;;;;27.03;2.30;;;;;;;4.26;100.00;98275.59;5124283;28;20677;-77
2022/01/20 04:58:24;;;;;;;37.07;3.10;;;;;;;4.48;100.00;98262.03;5124001;28;20603;-77
2022/01/20 05:00:51;;;;;;;32.47;3.13;;;;;;;4.48;100.00;98264.66;5125521;28;20599;-78
2022/01/20 05:03:18;;;;;;;44.10;3.90;;;;;;;4.40;100.00;98257.78;5121986;28;21042;-77
2022/01/20 05:05:46;;;;;;;25.83;2.87;;;;;;;4.46;100.00;98262.22;5119866;28;20605;-77
2022/01/20 05:08:17;;;;;;;35.03;3.20;;;;;;;4.43;100.00;98267.13;5121389;28;20613;-77
2022/01/20 05:10:43;;;;;;;19.10;2.30;;;;;;;4.24;100.00;98258.34;5125733;28;20602;-77
2022/01/20 05:13:21;;;;;;;21.33;3.07;;;;;;;4.36;100.00;98256.63;5124803;28;20603;-77
2022/01/20 05:15:48;;;;;;;41.17;3.50;;;;;;;4.32;100.00;98261.53;5122802;28;20634;-77
2022/01/20 05:18:15;;;;;;;12.53;1.97;;;;;;;4.45;100.00;98265.91;5123687;28;20591;-77
2022/01/20 05:20:41;;;;;;;13.03;2.30;;;;;;;4.51;100.00;98277.47;5124393;28;20588;-77
2022/01/20 05:23:09;;;;;;;17.23;1.90;;;;;;;4.32;100.00;98271.28;5123657;28;20608;-77
2022/01/20 05:25:36;;;;;;;21.30;2.97;;;;;;;4.24;100.00;98263.63;5154534;27;20627;-77
2022/01/20 05:28:03;;;;;;;17.10;2.50;;;;;;;4.30;100.00;98263.56;5120414;28;20639;-77
2022/01/20 05:30:29;;;;;;;30.13;3.27;;;;;;;4.33;100.00;98265.78;5123369;28;20919;-77
2022/01/20 05:32:56;;;;;;;9.40;2.07;;;;;;;4.22;100.00;98257.72;5123600;28;20618;-77
2022/01/20 05:35:22;;;;;;;30.53;3.60;;;;;;;4.24;100.00;98258.34;5121699;28;20622;-77
2022/01/20 05:37:49;;;;;;;31.53;3.20;;;;;;;4.46;100.00;98261.41;5121202;28;20615;-77
2022/01/20 05:40:17;;;;;;;19.90;2.77;;;;;;;4.29;100.00;98261.97;5120989;28;20597;-76
2022/01/20 05:42:44;;;;;;;68.63;4.70;;;;;;;4.47;100.00;98265.69;5124171;28;20603;-76
2022/01/20 05:45:12;;;;;;;36.90;3.50;;;;;;;4.37;100.00;98258.22;5122938;28;20595;-77
2022/01/20 05:47:44;;;;;;;42.60;3.37;;;;;;;4.37;100.00;98260.88;5121073;28;20602;-77
2022/01/20 05:50:12;;;;;;;39.17;3.80;;;;;;;4.42;100.00;98265.53;5120100;28;20609;-77
2022/01/20 05:52:41;;;;;;;28.40;2.40;;;;;;;4.34;100.00;98261.28;5123336;28;20630;-77
2022/01/20 05:55:10;;;;;;;40.43;3.50;;;;;;;4.40;100.00;98254.34;5114472;28;20603;-78
2022/01/20 05:57:38;;;;;;;60.50;4.77;;;;;;;4.22;100.00;98247.97;5112183;28;20600;-77
2022/01/20 06:00:06;;;;;;;49.57;3.93;;;;;;;4.28;100.00;98249.75;5112215;28;20609;-77
2022/01/20 06:02:36;;;;;;;53.07;3.73;;;;;;;4.28;100.00;98252.41;5111827;28;20635;-78
2022/01/20 06:05:04;;;;;;;33.93;3.57;;;;;;;4.44;100.00;98252.88;5112255;28;20621;-77
2022/01/20 06:07:31;;;;;;;37.00;3.93;;;;;;;4.36;100.00;98256.63;5120480;28;20596;-77
2022/01/20 06:09:58;;;;;;;43.43;3.87;;;;;;;4.45;100.00;98275.66;5114005;28;20584;-77
2022/01/20 06:12:24;;;;;;;32.57;3.23;;;;;;;4.32;100.00;98277.38;5116128;28;21160;-78
2022/01/20 06:14:52;;;;;;;27.77;2.70;;;;;;;4.32;100.00;98272.09;5124672;28;20648;-77
2022/01/20 06:17:26;;;;;;;29.43;2.70;;;;;;;4.33;100.00;98257.84;5122772;28;20721;-77
2022/01/20 06:19:53;;;;;;;35.27;3.33;;;;;;;4.32;100.00;98272.09;5120788;28;20612;-77
2022/01/20 06:22:20;;;;;;;47.70;4.10;;;;;;;4.29;100.00;98272.53;5122008;28;20627;-77
2022/01/20 06:24:47;;;;;;;39.93;4.20;;;;;;;4.17;100.00;98268.94;5118756;28;20634;-77
2022/01/20 06:27:14;;;;;;;12.53;2.47;;;;;;;4.17;100.00;98265.50;5119998;28;20697;-77
2022/01/20 06:29:41;;;;;;;33.83;3.27;;;;;;;4.21;100.00;98272.78;5124313;28;20607;-77
2022/01/20 06:32:09;;;;;;;46.10;3.90;;;;;;;4.25;100.00;98267.88;5123872;28;20604;-77
2022/01/20 06:34:36;;;;;;;43.20;3.43;;;;;;;4.24;100.00;98248.53;5111305;28;20612;-77
2022/01/20 06:37:03;;;;;;;44.33;4.50;;;;;;;4.26;100.00;98240.41;5111157;28;20607;-77
2022/01/20 06:39:30;;;;;;;18.30;3.60;;;;;;;4.22;100.00;98236.56;5111178;28;20607;-77
2022/01/20 06:41:56;;;;;;;25.00;3.70;;;;;;;4.16;100.00;98235.59;5111247;28;20608;-78
2022/01/20 06:44:25;;;;;;;20.47;3.03;;;;;;;4.19;100.00;98234.34;5111271;28;20602;-77
2022/01/20 06:46:52;;;;;;;60.40;5.57;;;;;;;4.19;100.00;98234.34;5111321;28;20624;-78
2022/01/20 06:49:20;;;;;;;37.13;3.93;;;;;;;4.24;100.00;98237.19;5110258;28;20600;-77
2022/01/20 06:51:46;;;;;;;47.23;4.17;;;;;;;4.21;100.00;98251.63;5112429;28;20666;-78
2022/01/20 06:54:14;;;;;;;40.77;3.77;;;;;;;4.24;100.00;98242.47;5114813;28;20596;-77
2022/01/20 06:56:42;;;;;;;32.17;2.90;;;;;;;4.24;100.00;98245.13;5120059;28;20642;-78
2022/01/20 06:59:09;;;;;;;38.77;4.03;;;;;;;4.28;100.00;98255.03;5118502;28;20592;-77
2022/01/20 07:01:36;;;;;;;54.43;4.53;;;;;;;4.29;100.00;98248.75;5123562;28;20652;-77
2022/01/20 07:04:03;;;;;;;67.20;6.47;;;;;;;4.24;100.00;98240.63;5123212;28;20608;-78
2022/01/20 07:06:32;;;;;;;35.33;4.50;;;;;;;4.25;100.00;98260.75;5121169;28;20646;-78
2022/01/20 07:08:58;;;;;;;18.30;2.67;;;;;;;4.35;100.00;98260.28;5120533;28;20663;-77
2022/01/20 07:11:26;;;;;;;27.30;3.57;;;;;;;4.33;100.00;98259.69;5122082;28;20608;-77
2022/01/20 07:13:54;;;;;;;67.27;5.90;;;;;;;4.24;100.00;98258.34;5125059;28;20608;-77
2022/01/20 07:16:21;;;;;;;35.20;3.90;;;;;;;4.25;100.00;98276.63;5123227;28;20603;-78
2022/01/20 07:18:50;;;;;;;24.03;3.20;;;;;;;4.21;100.00;98272.78;5123898;28;20597;-78
2022/01/20 07:21:17;;;;;;;20.70;3.33;;;;;;;4.21;100.00;98279.88;5125776;28;20616;-78
2022/01/20 07:26:26;;;;;;;68.00;5.73;;;;;;;4.26;100.00;98293.28;5123424;28;20632;-78
2022/01/20 07:28:52;;;;;;;23.87;3.37;;;;;;;4.17;100.00;98279.53;5122864;28;20601;-78
2022/01/20 07:31:22;;;;;;;23.00;3.57;;;;;;;4.14;100.00;98279.94;5120952;28;20620;-78
2022/01/20 07:33:49;;;;;;;10.10;2.47;;;;;;;4.12;100.00;98291.72;5121996;28;20619;-78
2022/01/20 07:36:16;;;;;;;30.50;4.47;;;;;;;4.09;100.00;98295.63;5122035;28;20611;-78
2022/01/20 07:38:43;;;;;;;37.00;4.57;;;;;;;4.15;100.00;98286.84;5118378;28;20612;-78
2022/01/20 07:41:11;;;;;;;18.40;3.13;;;;;;;4.29;100.00;98296.31;5119820;28;20610;-78
2022/01/20 07:43:38;;;;;;;32.03;4.03;;;;;;;4.13;100.00;98303.94;5121684;28;20637;-78
2022/01/20 07:46:05;;;;;;;13.77;2.97;;;;;;;4.25;100.00;98318.91;5122974;28;20633;-78
2022/01/20 07:48:32;;;;;;;53.83;5.27;;;;;;;4.22;100.00;98308.75;5118585;28;20613;-78
2022/01/20 07:50:59;;;;;;;38.10;5.17;;;;;;;4.28;100.00;98309.75;5119224;28;20593;-78
2022/01/20 07:53:26;;;;;;;11.63;4.10;;;;;;;4.36;100.00;98317.44;5122907;28;20615;-78
2022/01/20 07:55:53;;;;;;;38.70;3.97;;;;;;;4.34;100.00;98307.06;5117002;28;20608;-78
2022/01/20 07:58:21;;;;;;;33.73;4.23;;;;;;;4.27;100.00;98305.50;5120930;28;20596;-78
2022/01/20 08:00:47;;;;;;;16.87;3.27;;;;;;;4.29;100.00;98296.31;5119614;28;20597;-78
2022/01/20 08:03:14;;;;;;;40.13;4.90;;;;;;;4.25;100.00;98307.53;5121186;28;21048;-78
2022/01/20 08:05:41;;;;;;;42.70;5.30;;;;;;;4.24;100.00;98322.56;5124097;28;20641;-78
2022/01/20 08:08:07;;;;;;;23.80;4.30;;;;;;;4.25;100.00;98313.63;5124969;28;20604;-78
2022/01/20 08:10:35;;;;;;;20.93;3.97;;;;;;;4.34;100.00;98309.69;5112537;28;20607;-78
2022/01/20 08:13:02;;;;;;;41.40;4.73;;;;;;;4.36;100.00;98320.88;5110719;28;20605;-78
2022/01/20 08:15:30;;;;;;;22.17;3.83;;;;;;;4.24;100.00;98321.78;5110604;28;20681;-77
2022/01/20 08:17:57;;;;;;;34.13;4.93;;;;;;;4.17;100.00;98319.19;5117953;28;20635;-78
2022/01/20 08:20:24;;;;;;;30.30;4.50;;;;;;;4.27;100.00;98331.94;5109220;28;20623;-78
2022/01/20 08:22:51;;;;;;;33.30;4.77;;;;;;;4.19;100.00;98340.91;5115193;28;20612;-78
2022/01/20 08:25:19;;;;;;;57.13;5.50;;;;;;;4.18;100.00;98327.88;5113522;28;20634;-78
2022/01/20 08:27:48;;;;;;;23.97;3.00;;;;;;;4.18;100.00;98333.19;5122651;28;20615;-78
2022/01/20 08:30:18;;;;;;;41.10;4.30;;;;;;;4.19;100.00;98322.41;5121438;28;20610;-78
2022/01/20 08:32:48;;;;;;;50.47;5.57;;;;;;;4.17;100.00;98327.09;5117893;28;20649;-78
2022/01/20 08:35:15;;;;;;;49.00;4.57;;;;;;;4.20;100.00;98316.09;5119708;28;20605;-77
2022/01/20 08:37:45;;;;;;;62.07;5.93;;;;;;;4.14;100.00;98305.56;5122000;28;20649;-78
2022/01/20 08:40:14;;;;;;;32.70;5.33;;;;;;;4.32;100.00;98311.75;5122632;28;20618;-78
2022/01/20 08:42:41;;;;;;;15.73;2.90;;;;;;;4.25;100.00;98305.69;5120887;28;21061;-78
2022/01/20 08:45:11;;;;;;;29.73;4.43;;;;;;;4.26;100.00;98303.88;5121381;28;20597;-79
2022/01/20 08:47:38;;;;;;;16.47;3.53;;;;;;;4.39;100.00;98308.25;5128545;28;20599;-78
2022/01/20 08:50:08;;;;;;;20.63;3.40;;;;;;;4.35;100.00;98308.69;5128950;28;20596;-78
2022/01/20 08:52:34;;;;;;;21.40;4.50;;;;;;;4.51;100.00;98322.41;5116657;28;20634;-78
2022/01/20 08:55:02;;;;;;;35.33;5.20;;;;;;;4.41;100.00;98325.53;5119560;28;20601;-78
2022/01/20 08:57:29;;;;;;;71.70;6.33;;;;;;;4.41;100.00;98330.81;5124311;28;20596;-78
2022/01/20 08:59:57;;;;;;;13.77;3.10;;;;;;;4.34;100.00;98349.38;5125335;28;20877;-78
2022/01/20 09:02:24;;;;;;;26.83;3.20;;;;;;;4.32;100.00;98353.25;5123836;28;20599;-78
2022/01/20 09:04:51;;;;;;;72.30;6.20;;;;;;;4.40;100.00;98352.16;5155324;27;20608;-78
2022/01/20 09:07:19;;;;;;;56.27;5.27;;;;;;;4.32;100.00;98350.59;5121994;28;20730;-79
2022/01/20 09:09:46;;;;;;;25.63;3.53;;;;;;;4.45;100.00;98345.25;5124163;28;20632;-78
2022/01/20 09:15:27;;;;;;;26.87;4.30;;;;;;;4.43;100.00;98341.16;5123647;28;20802;-78
2022/01/20 09:17:53;;;;;;;18.10;2.83;;;;;;;4.39;100.00;98332.88;5120817;28;20592;-77
2022/01/20 09:20:20;;;;;;;10.87;2.93;;;;;;;4.48;100.00;98323.66;5122142;28;20609;-77
2022/01/20 09:22:50;;;;;;;31.20;3.57;;;;;;;4.36;100.00;98322.72;5123826;28;20649;-78
2022/01/20 09:25:17;;;;;;;34.43;3.80;;;;;;;4.49;100.00;98335.06;5114768;28;20617;-77
2022/01/20 09:27:44;;;;;;;34.57;4.23;;;;;;;4.46;100.00;98325.69;5124780;28;20603;-77
2022/01/20 09:30:17;;;;;;;30.87;4.00;;;;;;;4.50;100.00;98326.06;5123735;28;20603;-77
2022/01/20 09:32:46;;;;;;;29.17;4.00;;;;;;;4.58;100.00;98333.78;5120794;28;20615;-77
2022/01/20 09:35:13;;;;;;;9.30;2.47;;;;;;;4.54;100.00;98327.28;5122817;28;20943;-77
2022/01/20 09:37:42;;;;;;;41.47;4.20;;;;;;;4.42;100.00;98329.00;5126006;28;20611;-77
2022/01/20 09:40:11;;;;;;;46.83;4.03;;;;;;;4.59;100.00;98336.19;5124193;28;20603;-77
2022/01/20 09:42:38;;;;;;;42.67;4.30;;;;;;;4.64;100.00;98332.91;5119769;28;20596;-78
2022/01/20 09:45:05;;;;;;;42.33;5.17;;;;;;;4.41;100.00;98337.94;5120745;28;21086;-77
2022/01/20 09:47:32;;;;;;;29.37;3.57;;;;;;;4.40;100.00;98341.59;5124035;28;20599;-78
2022/01/20 09:49:58;;;;;;;47.10;5.30;;;;;;;4.46;100.00;98333.63;5124062;28;20599;-77
2022/01/20 09:52:27;;;;;;;36.73;3.73;;;;;;;4.39;100.00;98326.78;5121678;28;21128;-77
2022/01/20 09:54:54;;;;;;;17.47;4.10;;;;;;;4.39;100.00;98334.69;5114983;28;20623;-77
2022/01/20 09:57:22;;;;;;;29.10;3.60;;;;;;;4.51;100.00;98330.34;5121222;28;20609;-77
2022/01/20 09:59:50;;;;;;;19.50;2.70;;;;;;;4.73;100.00;98332.44;5123268;28;20654;-78
2022/01/20 10:02:19;;;;;;;74.33;5.60;;;;;;;4.57;100.00;98340.06;5123435;28;20634;-78
2022/01/20 10:04:46;;;;;;;49.23;4.30;;;;;;;4.63;100.00;98345.31;5119734;28;20617;-77
2022/01/20 10:07:15;;;;;;;74.60;6.97;;;;;;;4.58;100.00;98347.00;5120807;28;20609;-78
2022/01/20 10:09:45;;;;;;;59.10;5.47;;;;;;;4.46;100.00;98354.78;5123242;28;20615;-78
2022/01/20 10:12:14;;;;;;;37.80;4.70;;;;;;;4.52;100.00;98350.50;5124293;28;20600;-78
2022/01/20 10:14:44;;;;;;;44.67;4.90;;;;;;;4.55;100.00;98355.34;5120702;28;20616;-78
2022/01/20 10:17:16;;;;;;;23.57;3.53;;;;;;;4.56;100.00;98338.44;5120901;28;20592;-78
2022/01/20 10:19:43;;;;;;;39.20;4.87;;;;;;;4.59;100.00;98343.31;5124894;28;20603;-78
2022/01/20 10:22:16;;;;;;;72.83;5.63;;;;;;;4.63;100.00;98332.09;5124161;28;20600;-78
2022/01/20 10:24:57;;;;;;;38.03;4.80;;;;;;;4.43;100.00;98325.31;5114400;28;20608;-77
2022/01/20 10:27:24;;;;;;;29.90;3.33;;;;;;;4.57;100.00;98332.97;5121149;28;20638;-78
2022/01/20 10:29:57;;;;;;;17.53;2.57;;;;;;;4.54;100.00;98330.75;5122908;28;20833;-78
2022/01/20 10:32:24;;;;;;;31.07;3.70;;;;;;;4.60;100.00;98331.72;5120748;28;20608;-78
2022/01/20 10:35:01;;;;;;;12.80;2.17;;;;;;;4.53;100.00;98333.59;5120268;28;20620;-78
2022/01/20 10:37:28;;;;;;;15.93;2.47;;;;;;;4.42;100.00;98335.09;5122575;28;20620;-78
2022/01/20 10:40:06;;;;;;;29.23;3.10;;;;;;;4.49;100.00;98335.84;5124618;28;20603;-77
2022/01/20 10:42:37;;;;;;;19.67;2.70;;;;;;;4.59;100.00;98335.38;5121968;28;20600;-79
2022/01/20 10:45:06;;;;;;;27.63;3.47;;;;;;;4.45;100.00;98328.56;5123980;28;20593;-78
2022/01/20 10:47:36;;;;;;;22.57;2.53;;;;;;;4.52;100.00;98326.69;5125763;28;20627;-78
2022/01/20 10:50:12;;;;;;;20.80;2.63;;;;;;;4.62;100.00;98313.78;5124718;28;20637;-77
2022/01/20 10:52:44;;;;;;;19.67;2.67;;;;;;;4.50;100.00;98299.63;5120170;28;20619;-77
2022/01/20 10:55:21;;;;;;;25.73;3.03;;;;;;;4.67;100.00;98308.66;5123709;28;20639;-77
2022/01/20 10:57:48;;;;;;;43.97;3.80;;;;;;;4.71;100.00;98299.25;5122184;28;20603;-77
2022/01/20 11:00:20;;;;;;;54.90;4.00;;;;;;;4.73;100.00;98297.22;5120713;28;21013;-77
2022/01/20 11:02:53;;;;;;;16.00;2.80;;;;;;;4.76;100.00;98286.22;5120896;28;20639;-78
2022/01/20 11:05:20;;;;;;;26.50;3.10;;;;;;;4.61;100.00;98270.63;5122196;28;20627;-77
2022/01/20 11:07:47;;;;;;;24.20;3.20;;;;;;;4.59;100.00;98271.88;5121608;28;20623;-77
2022/01/20 11:10:16;;;;;;;19.40;4.53;;;;;;;4.64;100.00;98264.91;5121985;28;20618;-78
2022/01/20 11:12:44;;;;;;;23.67;3.60;;;;;;;4.57;100.00;98258.09;5119768;28;21081;-78
2022/01/20 11:15:14;;;;;;;21.23;3.43;;;;;;;4.73;100.00;98258.34;5119831;28;20604;-78
2022/01/20 11:17:43;;;;;;;30.60;3.73;;;;;;;4.63;100.00;98247.44;5122310;28;20606;-78
2022/01/20 11:20:13;;;;;;;39.27;3.87;;;;;;;4.88;100.00;98245.59;5122837;28;20624;-78
2022/01/20 11:22:51;;;;;;;39.47;3.67;;;;;;;4.79;100.00;98243.44;5117920;28;20617;-78
2022/01/20 11:25:21;;;;;;;44.17;4.50;;;;;;;4.82;100.00;98245.66;5120161;28;20600;-77
2022/01/20 11:27:48;;;;;;;42.70;3.40;;;;;;;4.77;100.00;98243.66;5122982;28;20606;-77
2022/01/20 11:30:17;;;;;;;35.97;3.77;;;;;;;4.82;100.00;98237.72;5122504;28;20619;-78
2022/01/20 11:32:58;;;;;;;43.17;4.43;;;;;;;5.07;100.00;98245.63;5119251;28;20597;-78
2022/01/20 11:35:37;;;;;;;54.70;4.70;;;;;;;4.98;100.00;98253.03;5121717;28;20604;-78
2022/01/20 11:38:04;;;;;;;28.17;3.23;;;;;;;5.04;100.00;98257.44;5122089;28;21106;-77
2022/01/20 11:40:30;;;;;;;18.23;2.40;;;;;;;4.79;100.00;98240.78;5120095;28;21193;-77
2022/01/20 11:42:59;;;;;;;29.37;2.93;;;;;;;4.76;100.00;98236.75;5119553;28;20616;-77
2022/01/20 11:45:31;;;;;;;16.60;2.07;;;;;;;5.01;100.00;98236.72;5120699;28;20678;-78
2022/01/20 11:48:11;;;;;;;49.60;4.23;;;;;;;4.87;100.00;98240.50;5122733;28;20603;-78
2022/01/20 11:50:38;;;;;;;39.47;3.03;;;;;;;4.90;100.00;98245.38;5109710;28;20627;-78
2022/01/20 11:53:11;;;;;;;44.67;3.07;;;;;;;4.85;100.00;98253.97;5113021;28;20604;-77
2022/01/20 11:55:47;;;;;;;40.77;3.50;;;;;;;4.77;100.00;98254.22;5119177;28;20616;-78
2022/01/20 11:58:15;;;;;;;32.70;3.63;;;;;;;4.84;100.00;98233.00;5119323;28;20580;-78
2022/01/20 12:00:42;;;;;;;35.53;3.00;;;;;;;4.81;100.00;98244.84;5121655;28;20634;-77
2022/01/20 12:03:15;;;;;;;23.83;2.47;;;;;;;4.79;100.00;98254.03;5121879;28;21586;-77
2022/01/20 12:05:42;;;;;;;16.10;2.27;;;;;;;4.81;100.00;98281.06;5119348;28;20642;-78
2022/01/20 12:08:12;;;;;;;13.50;1.57;;;;;;;4.38;100.00;98302.16;5118203;28;20617;-77
2022/01/20 12:10:39;;;;;;;35.37;2.47;;;;;;;3.69;100.00;98317.97;5122278;28;20736;-77
2022/01/20 12:13:08;;;;;;;36.67;2.53;;;;;;;3.19;100.00;98333.53;5121353;28;20616;-78
2022/01/20 12:15:35;;;;;;;36.47;2.40;;;;;;;3.15;100.00;98324.41;5110338;28;20608;-78
2022/01/20 12:18:01;;;;;;;33.00;2.10;;;;;;;3.24;100.00;98317.09;5110633;28;20615;-77
2022/01/20 12:20:30;;;;;;;21.33;1.30;;;;;;;3.22;100.00;98327.84;5111870;28;20612;-78
2022/01/20 12:22:59;;;;;;;23.03;1.77;;;;;;;3.31;100.00;98319.72;5123185;28;20616;-77
2022/01/20 12:25:28;;;;;;;47.20;2.83;;;;;;;3.44;100.00;98314.38;5117660;28;20613;-77
2022/01/20 12:28:04;;;;;;;16.73;1.40;;;;;;;3.57;100.00;98309.06;5125865;28;20649;-78
2022/01/20 12:30:31;;;;;;;63.00;3.60;;;;;;;3.60;100.00;98306.81;5124849;28;20606;-77
2022/01/20 12:33:06;;;;;;;33.47;2.40;;;;;;;3.62;100.00;98317.19;5127698;28;20604;-77